createdAt,value
2023-01-15T06:05:39.618Z,4.98
2023-01-15T06:08:06.171Z,4.96
2023-01-15T06:10:33.332Z,4.95
2023-01-15T06:12:59.879Z,4.94
2023-01-15T06:15:27.024Z,4.97
2023-01-15T06:17:53.645Z,4.99
2023-01-15T06:20:20.832Z,5.05
2023-01-15T06:22:49.194Z,5.06
2023-01-15T06:25:16.281Z,5.09
2023-01-15T06:27:44.463Z,5.10
2023-01-15T06:30:12.734Z,5.09
2023-01-15T06:32:39.277Z,5.10
2023-01-15T06:35:06.911Z,5.15
2023-01-15T06:37:33.577Z,5.13
2023-01-15T06:40:00.757Z,5.16
2023-01-15T06:42:45.931Z,5.16
2023-01-15T06:45:31.665Z,5.15
2023-01-15T06:47:58.904Z,5.07
2023-01-15T06:50:26.237Z,5.09
2023-01-15T06:52:52.793Z,5.10
2023-01-15T06:55:20.049Z,5.11
2023-01-15T06:57:46.587Z,5.02
2023-01-15T07:00:14.366Z,5.06
2023-01-15T07:02:41.357Z,5.03
2023-01-15T07:05:09.086Z,5.11
2023-01-15T07:07:35.728Z,5.10
2023-01-15T07:10:03.042Z,5.13
2023-01-15T07:12:30.426Z,5.07
2023-01-15T07:14:58.461Z,5.03
2023-01-15T07:17:25.052Z,5.03
2023-01-15T07:19:52.268Z,5.01
2023-01-15T07:22:18.838Z,5.05
2023-01-15T07:24:46.080Z,5.10
2023-01-15T07:27:12.675Z,5.07
2023-01-15T07:29:39.741Z,5.06
2023-01-15T07:32:06.571Z,5.07
2023-01-15T07:34:33.228Z,5.01
2023-01-15T07:37:00.091Z,4.96
2023-01-15T07:39:28.645Z,5.03
2023-01-15T07:42:13.607Z,5.07
2023-01-15T07:44:59.342Z,5.02
2023-01-15T07:47:45.087Z,4.99
2023-01-15T07:50:18.387Z,5.00
2023-01-15T07:52:45.132Z,5.04
2023-01-15T07:55:13.522Z,4.98
2023-01-15T07:57:41.762Z,5.00
2023-01-15T08:00:14.942Z,5.04
2023-01-15T08:02:42.062Z,4.98
2023-01-15T08:05:09.999Z,4.98
2023-01-15T08:07:38.404Z,5.04
2023-01-15T08:10:06.099Z,5.06
2023-01-15T08:12:51.372Z,5.08
2023-01-15T08:15:18.792Z,5.06
2023-01-15T08:17:47.804Z,5.08
2023-01-15T08:20:20.628Z,5.02
2023-01-15T08:22:48.031Z,5.11
2023-01-15T08:25:17.940Z,5.07
2023-01-15T08:27:45.411Z,5.05
2023-01-15T08:30:16.330Z,5.09
2023-01-15T08:32:43.370Z,5.15
2023-01-15T08:35:10.573Z,5.14
2023-01-15T08:37:37.151Z,5.18
2023-01-15T08:40:04.851Z,5.14
2023-01-15T08:42:31.607Z,5.02
2023-01-15T08:44:58.775Z,5.00
2023-01-15T08:47:25.440Z,4.92
2023-01-15T08:49:52.636Z,4.81
2023-01-15T08:52:19.242Z,4.74
2023-01-15T08:54:46.393Z,4.73
2023-01-15T08:57:13.877Z,4.72
2023-01-15T08:59:43.650Z,4.73
2023-01-15T09:02:14.872Z,4.75
2023-01-15T09:04:41.907Z,4.79
2023-01-15T09:07:09.307Z,4.84
2023-01-15T09:09:35.959Z,4.85
2023-01-15T09:12:03.196Z,4.90
2023-01-15T09:14:59.737Z,4.93
2023-01-15T09:17:17.004Z,4.98
2023-01-15T09:19:43.958Z,4.98
2023-01-15T09:22:10.485Z,5.04
2023-01-15T09:24:37.544Z,5.02
2023-01-15T09:27:04.736Z,5.00
2023-01-15T09:29:31.415Z,4.99
2023-01-15T09:31:58.648Z,4.93
2023-01-15T09:34:25.190Z,4.88
2023-01-15T09:36:52.499Z,4.84
2023-01-15T09:39:19.063Z,4.89
2023-01-15T09:42:13.181Z,4.91
2023-01-15T09:44:58.741Z,4.94
2023-01-15T09:47:30.785Z,4.93
2023-01-15T09:49:57.946Z,4.92
2023-01-15T09:52:34.992Z,4.94
2023-01-15T09:55:26.285Z,4.98
2023-01-15T09:57:55.715Z,5.05
2023-01-15T10:00:25.861Z,5.02
2023-01-15T10:02:59.047Z,5.00
2023-01-15T10:05:31.419Z,5.07
2023-01-15T10:08:11.202Z,5.06
2023-01-15T10:11:04.491Z,5.13
2023-01-15T10:13:55.288Z,5.12
2023-01-15T10:16:27.503Z,5.15
2023-01-15T10:18:58.031Z,5.23
2023-01-15T10:21:48.390Z,5.27
2023-01-15T10:24:23.293Z,5.36
2023-01-15T10:26:58.013Z,5.45
2023-01-15T10:29:45.542Z,5.49
2023-01-15T10:32:38.330Z,5.52
2023-01-15T10:35:11.183Z,5.59
2023-01-15T10:37:42.078Z,5.60
2023-01-15T10:40:33.209Z,5.63
2023-01-15T10:43:20.627Z,5.61
2023-01-15T10:45:53.550Z,5.67
2023-01-15T10:48:48.783Z,5.71
2023-01-15T10:51:23.584Z,5.78
2023-01-15T10:54:06.816Z,5.82
2023-01-15T10:56:41.415Z,5.86
2023-01-15T10:59:23.741Z,5.91
2023-01-15T11:01:54.223Z,5.93
2023-01-15T11:04:22.315Z,5.95
2023-01-15T11:06:48.981Z,5.96
2023-01-15T11:09:36.266Z,5.97
2023-01-15T11:12:26.031Z,5.99
2023-01-15T11:15:12.841Z,6.04
2023-01-15T11:18:03.698Z,6.06
2023-01-15T11:20:38.602Z,6.11
2023-01-15T11:23:10.469Z,6.12
2023-01-15T11:25:44.997Z,6.15
2023-01-15T11:28:15.280Z,6.22
2023-01-15T11:30:45.127Z,6.22
2023-01-15T11:33:27.989Z,6.25
2023-01-15T11:35:58.793Z,6.26
2023-01-15T11:38:27.567Z,6.29
2023-01-15T11:40:57.112Z,6.30
2023-01-15T11:43:45.280Z,6.35
2023-01-15T11:46:44.276Z,6.37
2023-01-15T11:49:29.544Z,6.41
2023-01-15T11:51:59.089Z,6.45
2023-01-15T11:54:27.007Z,6.40
2023-01-15T11:56:55.136Z,6.48
2023-01-15T11:59:22.542Z,6.56
2023-01-15T12:02:26.202Z,6.56
2023-01-15T12:04:57.441Z,6.51
2023-01-15T12:07:26.497Z,6.48
2023-01-15T12:10:14.660Z,6.49
2023-01-15T12:13:01.733Z,6.43
2023-01-15T12:15:40.818Z,6.40
2023-01-15T12:18:33.558Z,6.35
2023-01-15T12:21:14.236Z,6.32
2023-01-15T12:24:08.597Z,6.34
2023-01-15T12:26:53.270Z,6.39
2023-01-15T12:29:28.390Z,6.41
2023-01-15T12:32:10.014Z,6.41
2023-01-15T12:35:01.754Z,6.40
2023-01-15T12:37:34.132Z,6.42
2023-01-15T12:40:38.501Z,6.42
2023-01-15T12:43:33.774Z,6.43
2023-01-15T12:46:02.761Z,6.39
2023-01-15T12:48:44.189Z,6.33
2023-01-15T12:51:18.045Z,6.36
2023-01-15T12:53:52.343Z,6.36
2023-01-15T12:56:28.267Z,6.34
2023-01-15T12:59:21.811Z,6.24
2023-01-15T13:02:09.580Z,6.22
2023-01-15T13:04:45.420Z,6.29
2023-01-15T13:07:21.882Z,6.27
2023-01-15T13:10:13.425Z,6.29
2023-01-15T13:12:40.036Z,6.25
2023-01-15T13:15:07.385Z,6.23
2023-01-15T13:17:52.491Z,6.25
2023-01-15T13:20:45.019Z,6.23
2023-01-15T13:23:49.253Z,6.25
2023-01-15T13:26:27.738Z,6.23
2023-01-15T13:29:00.739Z,6.29
2023-01-15T13:31:56.680Z,6.39
2023-01-15T13:34:39.230Z,6.36
2023-01-15T13:37:30.872Z,6.40
2023-01-15T13:40:27.356Z,6.51
2023-01-15T13:42:54.530Z,6.51
2023-01-15T13:45:41.209Z,6.48
2023-01-15T13:48:24.020Z,6.48
2023-01-15T13:50:59.491Z,6.49
2023-01-15T13:53:44.916Z,6.52
2023-01-15T13:56:16.037Z,6.47
2023-01-15T13:58:57.375Z,6.45
2023-01-15T14:01:30.012Z,6.42
2023-01-15T14:04:02.007Z,6.42
2023-01-15T14:06:43.801Z,6.39
2023-01-15T14:09:21.011Z,6.40
2023-01-15T14:11:58.173Z,6.42
2023-01-15T14:14:48.539Z,6.37
2023-01-15T14:18:08.690Z,6.31
2023-01-15T14:20:51.611Z,6.26
2023-01-15T14:23:40.312Z,6.26
2023-01-15T14:26:11.417Z,6.24
2023-01-15T14:29:12.683Z,6.24
2023-01-15T14:32:02.929Z,6.21
2023-01-15T14:34:33.209Z,6.23
2023-01-15T14:37:04.671Z,6.16
2023-01-15T14:39:50.372Z,6.10
2023-01-15T14:42:41.707Z,6.08
2023-01-15T14:45:18.001Z,6.10
2023-01-15T14:47:53.721Z,6.12
2023-01-15T14:50:28.022Z,6.13
2023-01-15T14:52:59.659Z,6.06
2023-01-15T14:55:26.653Z,6.10
2023-01-15T14:58:01.905Z,6.10
2023-01-15T15:00:35.881Z,6.06
2023-01-15T15:03:13.098Z,6.04
2023-01-15T15:05:44.054Z,6.02
2023-01-15T15:08:15.905Z,6.04
2023-01-15T15:10:46.361Z,6.05
2023-01-15T15:13:38.166Z,6.03
2023-01-15T15:16:11.819Z,6.04
2023-01-15T15:18:44.632Z,5.98
2023-01-15T15:21:27.657Z,5.95
2023-01-15T15:24:07.613Z,5.99
2023-01-15T15:26:35.582Z,5.98
2023-01-15T15:29:06.118Z,5.96
2023-01-15T15:31:37.513Z,5.99
2023-01-15T15:34:07.525Z,5.95
2023-01-15T15:36:39.303Z,5.97
2023-01-15T15:39:37.516Z,6.01
2023-01-15T15:42:30.030Z,6.03
2023-01-15T15:45:18.061Z,5.97
2023-01-15T15:48:03.982Z,6.00
2023-01-15T15:50:35.193Z,6.02
2023-01-15T15:53:07.034Z,6.01
2023-01-15T15:55:40.618Z,6.03
2023-01-15T15:58:12.805Z,6.01
2023-01-15T16:00:44.190Z,6.01
2023-01-15T16:03:23.791Z,6.06
2023-01-15T16:06:05.175Z,6.05
2023-01-15T16:08:36.352Z,6.07
2023-01-15T16:11:07.194Z,6.07
2023-01-15T16:13:51.223Z,6.02
2023-01-15T16:16:19.301Z,5.97
2023-01-15T16:18:50.710Z,5.93
2023-01-15T16:21:30.417Z,5.95
2023-01-15T16:23:58.723Z,5.95
2023-01-15T16:26:42.100Z,5.95
2023-01-15T16:29:22.205Z,5.91
2023-01-15T16:31:49.348Z,5.91
2023-01-15T16:34:22.713Z,5.92
2023-01-15T16:36:49.461Z,5.95
2023-01-15T16:39:31.115Z,5.89
2023-01-15T16:41:59.302Z,5.92
2023-01-15T16:44:50.660Z,5.91
2023-01-15T16:47:29.466Z,5.91
2023-01-15T16:50:19.755Z,5.95
2023-01-15T16:52:53.160Z,5.90
2023-01-15T16:55:35.528Z,5.88
2023-01-15T16:58:15.342Z,5.89
2023-01-15T17:00:45.915Z,5.87
2023-01-15T17:03:14.638Z,5.90
2023-01-15T17:05:42.469Z,5.88
2023-01-15T17:08:28.768Z,5.86
2023-01-15T17:11:01.032Z,5.86
2023-01-15T17:13:46.073Z,5.92
2023-01-15T17:16:12.651Z,5.91
2023-01-15T17:18:40.091Z,5.91
2023-01-15T17:21:14.382Z,5.93
2023-01-15T17:23:43.180Z,5.90
2023-01-15T17:26:17.636Z,5.90
2023-01-15T17:28:45.267Z,5.89
2023-01-15T17:31:28.274Z,5.86
2023-01-15T17:33:56.692Z,5.85
2023-01-15T17:36:23.639Z,5.85
2023-01-15T17:38:50.987Z,5.86
2023-01-15T17:41:19.699Z,5.80
2023-01-15T17:43:46.945Z,5.78
2023-01-15T17:46:13.661Z,5.78
2023-01-15T17:48:40.870Z,5.79
2023-01-15T17:51:12.487Z,5.75
2023-01-15T17:53:39.912Z,5.69
2023-01-15T17:56:25.845Z,5.75
2023-01-15T17:59:11.650Z,5.74
2023-01-15T18:02:02.204Z,5.65
2023-01-15T18:05:04.732Z,5.65
2023-01-15T18:07:37.398Z,5.70
2023-01-15T18:10:05.683Z,5.70
2023-01-15T18:12:32.199Z,5.70
2023-01-15T18:14:59.482Z,5.71
2023-01-15T18:17:26.396Z,5.69
2023-01-15T18:19:55.790Z,5.70
2023-01-15T18:22:22.543Z,5.70
2023-01-15T18:24:49.582Z,5.71
2023-01-15T18:27:16.233Z,5.70
2023-01-15T18:29:43.943Z,5.74
2023-01-15T18:32:10.456Z,5.75
2023-01-15T18:34:38.113Z,5.72
2023-01-15T18:37:05.278Z,5.72
2023-01-15T18:39:32.456Z,5.75
2023-01-15T18:41:58.980Z,5.74
2023-01-15T18:44:44.795Z,5.69
2023-01-15T18:47:14.162Z,5.71
2023-01-15T18:49:42.094Z,5.69
2023-01-15T18:52:29.001Z,5.71
2023-01-15T18:54:56.273Z,5.77
2023-01-15T18:57:23.439Z,5.71
2023-01-15T18:59:52.147Z,5.70
2023-01-15T19:02:20.954Z,5.68
2023-01-15T19:04:48.899Z,5.70
2023-01-15T19:07:16.485Z,5.69
2023-01-15T19:09:43.831Z,5.69
2023-01-15T19:12:11.112Z,5.69
2023-01-15T19:14:56.778Z,5.70
2023-01-15T19:17:43.647Z,5.72
2023-01-15T19:20:14.005Z,5.71
2023-01-15T19:22:58.833Z,5.71
2023-01-15T19:25:52.318Z,5.70
2023-01-15T19:28:20.685Z,5.71
2023-01-15T19:31:08.217Z,5.71
2023-01-15T19:33:35.169Z,5.71
2023-01-15T19:36:03.394Z,5.74
2023-01-15T19:38:31.072Z,5.69
2023-01-15T19:41:18.201Z,5.71
2023-01-15T19:44:02.992Z,5.64
2023-01-15T19:46:49.312Z,5.58
2023-01-15T19:49:38.602Z,5.61
2023-01-15T19:52:23.680Z,5.55
2023-01-15T19:54:56.526Z,5.56
2023-01-15T19:57:23.717Z,5.56
2023-01-15T19:59:51.104Z,5.52
2023-01-15T20:02:17.919Z,5.55
2023-01-15T20:04:49.244Z,5.58
2023-01-15T20:07:16.110Z,5.59
2023-01-15T20:09:44.353Z,5.59
2023-01-15T20:12:32.201Z,5.57
2023-01-15T20:14:59.718Z,5.55
2023-01-15T20:17:29.128Z,5.57
2023-01-15T20:19:56.312Z,5.53
2023-01-15T20:22:25.766Z,5.54
2023-01-15T20:24:53.289Z,5.55
2023-01-15T20:27:19.909Z,5.56
2023-01-15T20:30:06.768Z,5.54
2023-01-15T20:32:33.335Z,5.51
2023-01-15T20:35:00.239Z,5.54
2023-01-15T20:37:26.749Z,5.56
2023-01-15T20:39:53.907Z,5.55
2023-01-15T20:42:39.267Z,5.52
2023-01-15T20:45:13.553Z,5.48
2023-01-15T20:48:00.124Z,5.51
2023-01-15T20:50:30.039Z,5.51
2023-01-15T20:52:58.543Z,5.43
2023-01-15T20:55:53.796Z,5.40
2023-01-15T20:58:24.208Z,5.37
2023-01-15T21:00:52.579Z,5.34
2023-01-15T21:03:20.348Z,5.37
2023-01-15T21:05:48.072Z,5.40
2023-01-15T21:08:14.955Z,5.41
2023-01-15T21:10:42.133Z,5.40
2023-01-15T21:13:08.839Z,5.37
2023-01-15T21:15:35.925Z,5.39
2023-01-15T21:18:02.484Z,5.34
2023-01-15T21:20:30.664Z,5.28
2023-01-15T21:22:58.023Z,5.33
2023-01-15T21:25:25.844Z,5.33
2023-01-15T21:27:52.704Z,5.30
